Higgins, Oklahoma
Current Conditions -  °F | °C
As of 3:53 PM on Saturday 25 Oct 2014 (Local Time) from KMLC Reporting Station
Clear Clear  
Wind Chill: 31°   Ceiling: Unl
Heat Index: 31°   Visibility: 10mi
Dew Point: 17°   Wind: 8mph
Humidity: 42%   Direction: 200°SSW
Pressure: 30.04"   Gusts: NA
Location:  34.8806°N, 95.3086°W
Report Text: KMLC 252053Z AUTO 20007KT 10SM CLR 31/17 A3004 RMK AO2 SLP164 T03110167 56018
Loading
Personal Weather Stations






























Interactive Weather Map
Tropical Storm Tracking
New forecast layout! Learn more

10-Day Weather Forecast

Advertisements
Track Severe Weather on mobile